Florinea, Brazil
Current Conditions -  °F | °C
As of 8:00 AM on Monday 22 Dec 2014 (Local Time) from SBLO Reporting Station
Light Rain Light Rain  
Wind Chill: 73°   Ceiling: 800
Heat Index: 73°   Visibility: 4mi
Dew Point: 73°   Wind: 12mph
Humidity: 100%   Direction: 30°NNE
Pressure: 29.85"   Gusts: NA
Location:  22.9°S, 50.73°W
Report Text: SBLO 221000Z 03010KT 6000 -RA SCT003 BKN008 OVC020 23/23 Q1011
Loading
Personal Weather Stations






























Interactive Weather Map New forecast layout! Learn more

10-Day Weather Forecast

Advertisements
Track Severe Weather on mobile